Time;durP1;ratioP1;P1;durP2;ratioP2;P2;SDS_P1;SDS_P2;PMS_P1;PMS_P2;Temp;Humidity;BMP_temperature;BMP_pressure;BME280_temperature;BME280_humidity;BME280_pressure;Samples;Min_cycle;Max_cycle;Signal;HPM_P1;HPM_P2
2022/04/07 00:00:03;;;;;;;12.30;11.20;;;;;;;10.55;74.71;98599.25;5018607;28;20416;-75
2022/04/07 00:02:29;;;;;;;12.33;11.23;;;;;;;10.88;74.02;98599.28;5018435;28;20215;-76
2022/04/07 00:04:54;;;;;;;12.63;11.30;;;;;;;10.69;73.65;98586.75;5018308;28;20426;-77
2022/04/07 00:07:21;;;;;;;11.10;10.20;;;;;;;11.00;72.43;98590.28;5018499;28;20253;-76
2022/04/07 00:09:47;;;;;;;12.40;11.27;;;;;;;10.68;73.78;98585.03;5018349;28;20190;-77
2022/04/07 00:12:12;;;;;;;11.80;10.80;;;;;;;10.66;73.81;98573.78;5018195;28;20487;-76
2022/04/07 00:14:37;;;;;;;12.17;11.10;;;;;;;10.69;73.09;98578.94;5018791;28;20174;-76
2022/04/07 00:17:03;;;;;;;11.30;10.40;;;;;;;10.71;72.46;98571.91;5018349;28;20207;-77
2022/04/07 00:19:29;;;;;;;11.30;10.30;;;;;;;10.91;72.64;98568.78;5017812;28;20241;-77
2022/04/07 00:21:56;;;;;;;10.07;9.27;;;;;;;11.06;71.93;98571.91;5018744;28;20389;-77
2022/04/07 00:24:22;;;;;;;11.00;10.10;;;;;;;10.98;72.63;98553.00;5018205;28;20175;-77
2022/04/07 00:26:48;;;;;;;11.63;10.53;;;;;;;11.14;71.77;98553.44;5020263;28;20432;-77
2022/04/07 00:29:13;;;;;;;11.17;10.10;;;;;;;11.09;71.60;98543.13;5022477;28;20400;-78
2022/04/07 00:31:39;;;;;;;10.57;9.63;;;;;;;10.91;72.01;98549.69;5021711;28;20253;-77
2022/04/07 00:34:08;;;;;;;10.50;9.70;;;;;;;11.08;72.49;98537.06;5021762;28;20175;-77
2022/04/07 00:36:34;;;;;;;10.43;9.63;;;;;;;10.93;72.45;98532.25;5021546;28;20461;-77
2022/04/07 00:38:59;;;;;;;11.23;10.13;;;;;;;10.85;72.77;98529.88;5021172;28;20428;-77
2022/04/07 00:41:25;;;;;;;11.40;10.40;;;;;;;11.12;72.03;98528.25;5021927;28;20237;-77
2022/04/07 00:43:51;;;;;;;11.37;10.37;;;;;;;11.27;71.77;98523.47;5021755;28;20258;-78
2022/04/07 00:46:16;;;;;;;11.97;10.77;;;;;;;11.04;71.94;98524.13;5021890;28;20185;-77
2022/04/07 00:48:41;;;;;;;10.43;9.53;;;;;;;10.82;72.93;98510.84;5022113;28;20425;-76
2022/04/07 00:51:07;;;;;;;11.80;10.73;;;;;;;10.95;72.59;98507.00;5022307;28;20174;-77
2022/04/07 00:53:32;;;;;;;10.70;9.90;;;;;;;11.17;72.54;98507.25;5021659;28;20278;-77
2022/04/07 00:56:01;;;;;;;10.57;9.73;;;;;;;10.69;73.13;98495.53;5020906;28;20202;-77
2022/04/07 00:58:28;;;;;;;11.33;9.97;;;;;;;10.54;74.13;98498.53;5021319;28;20189;-77
2022/04/07 01:00:53;;;;;;;9.60;8.80;;;;;;;10.76;74.16;98491.88;5021404;28;20468;-76
2022/04/07 01:03:19;;;;;;;11.13;9.97;;;;;;;10.82;74.63;98484.78;5021424;28;20830;-75
2022/04/07 01:05:44;;;;;;;11.83;10.63;;;;;;;10.59;74.56;98481.91;5021788;28;20203;-76
2022/04/07 01:08:10;;;;;;;12.27;11.00;;;;;;;10.83;74.74;98478.69;5024799;28;20216;-78
2022/04/07 01:10:35;;;;;;;11.67;10.53;;;;;;;10.58;74.84;98477.59;5041006;28;20174;-77
2022/04/07 01:13:01;;;;;;;12.67;11.57;;;;;;;10.81;74.77;98472.63;5041861;28;20198;-77
2022/04/07 01:15:26;;;;;;;12.90;11.60;;;;;;;10.76;74.79;98455.38;5040577;28;20206;-76
2022/04/07 01:17:51;;;;;;;13.40;12.20;;;;;;;10.92;74.59;98461.03;5040935;28;20178;-74
2022/04/07 01:20:17;;;;;;;12.87;11.67;;;;;;;10.96;74.26;98459.19;5032683;28;20179;-76
2022/04/07 01:22:44;;;;;;;13.50;12.20;;;;;;;11.05;74.01;98445.88;5020156;28;20189;-77
2022/04/07 01:25:10;;;;;;;14.57;13.27;;;;;;;10.48;74.32;98439.66;5021008;28;20179;-75
2022/04/07 01:27:35;;;;;;;14.47;13.13;;;;;;;10.59;74.80;98447.19;5021313;28;20399;-76
2022/04/07 01:30:05;;;;;;;17.40;14.13;;;;;;;10.89;74.36;98444.59;5020970;28;20229;-74
2022/04/07 01:32:38;;;;;;;13.37;12.03;;;;;;;10.83;73.76;98419.56;5020570;28;20441;-76
2022/04/07 01:35:04;;;;;;;13.80;12.57;;;;;;;11.22;72.42;98421.91;5020553;28;20475;-75
2022/04/07 01:37:30;;;;;;;13.53;12.00;;;;;;;11.11;72.46;98414.41;5019348;28;20813;-76
2022/04/07 01:39:55;;;;;;;14.73;13.47;;;;;;;11.17;72.11;98418.56;5020136;28;20422;-75
2022/04/07 01:42:21;;;;;;;14.47;13.17;;;;;;;10.72;73.13;98412.06;5020396;28;20392;-76
2022/04/07 01:44:49;;;;;;;12.43;11.43;;;;;;;11.10;72.40;98404.03;5020283;28;20171;-76
2022/04/07 01:47:19;;;;;;;12.03;11.00;;;;;;;11.01;72.19;98407.75;5020334;28;20183;-78
2022/04/07 01:49:46;;;;;;;12.17;11.03;;;;;;;11.25;71.99;98393.13;5020088;28;20819;-78
2022/04/07 01:52:12;;;;;;;12.57;11.47;;;;;;;11.36;71.10;98387.56;5020045;28;20418;-77
2022/04/07 01:54:38;;;;;;;11.80;10.73;;;;;;;11.23;70.92;98392.31;5020758;28;20472;-76
2022/04/07 01:57:03;;;;;;;11.97;10.50;;;;;;;11.24;71.09;98385.34;5019365;28;20220;-76
2022/04/07 01:59:29;;;;;;;14.03;10.43;;;;;;;11.18;71.41;98382.94;5020181;28;20183;-76
2022/04/07 02:01:54;;;;;;;11.70;10.50;;;;;;;11.02;71.41;98383.38;5020016;28;20285;-77
2022/04/07 02:04:20;;;;;;;10.90;9.90;;;;;;;10.90;71.70;98386.38;5020429;28;20203;-75
2022/04/07 02:06:45;;;;;;;11.70;10.50;;;;;;;10.46;72.97;98381.56;5020100;28;20182;-75
2022/04/07 02:09:11;;;;;;;11.17;10.17;;;;;;;10.90;72.77;98358.53;5031633;28;20209;-76
2022/04/07 02:11:36;;;;;;;10.07;9.07;;;;;;;11.10;71.70;98359.69;5039691;28;20174;-77
2022/04/07 02:14:01;;;;;;;10.50;9.30;;;;;;;11.10;71.62;98347.50;5040293;28;20170;-77
2022/04/07 02:16:29;;;;;;;10.03;9.23;;;;;;;11.07;72.33;98352.81;5039647;28;20214;-77
2022/04/07 02:18:54;;;;;;;11.57;10.23;;;;;;;11.39;71.39;98340.53;5039146;28;20173;-76
2022/04/07 02:21:19;;;;;;;10.67;9.77;;;;;;;11.14;71.60;98347.44;5023706;28;20422;-76
2022/04/07 02:23:45;;;;;;;10.53;9.53;;;;;;;11.10;71.64;98339.69;5019929;28;20246;-76
2022/04/07 02:26:15;;;;;;;11.43;10.07;;;;;;;10.88;72.29;98336.88;5019305;28;20178;-76
2022/04/07 02:28:41;;;;;;;10.83;9.80;;;;;;;10.89;72.67;98336.00;5019772;28;20167;-77
2022/04/07 02:31:07;;;;;;;12.77;9.53;;;;;;;10.86;72.77;98330.84;5019912;28;20472;-76
2022/04/07 02:33:34;;;;;;;11.10;10.00;;;;;;;11.08;71.69;98335.41;5019136;28;20175;-78
2022/04/07 02:36:02;;;;;;;11.53;10.40;;;;;;;11.10;71.42;98329.25;5020071;28;20205;-77
2022/04/07 02:38:28;;;;;;;10.77;9.77;;;;;;;11.08;71.19;98311.94;5019668;28;20438;-74
2022/04/07 02:40:53;;;;;;;10.63;9.63;;;;;;;10.99;71.42;98327.88;5019714;28;20426;-77
2022/04/07 02:43:19;;;;;;;11.67;10.60;;;;;;;11.05;71.79;98310.28;5019520;28;20198;-77
2022/04/07 02:45:44;;;;;;;11.50;9.93;;;;;;;11.26;71.20;98300.09;5019314;28;20563;-76
2022/04/07 02:48:09;;;;;;;10.23;9.23;;;;;;;11.11;72.10;98304.03;5019267;28;20174;-76
2022/04/07 02:50:34;;;;;;;10.93;9.90;;;;;;;10.86;72.71;98301.34;5019427;28;20175;-76
2022/04/07 02:53:00;;;;;;;11.37;10.27;;;;;;;11.00;73.35;98312.22;5019354;28;20595;-75
2022/04/07 02:55:27;;;;;;;11.20;10.20;;;;;;;10.75;75.71;98284.28;5019338;28;20207;-75
2022/04/07 02:57:52;;;;;;;12.20;11.10;;;;;;;11.06;75.91;98280.72;5019999;28;20162;-75
2022/04/07 03:00:18;;;;;;;12.00;10.80;;;;;;;11.23;74.93;98271.47;5019435;28;20436;-76
2022/04/07 03:02:43;;;;;;;13.63;12.33;;;;;;;10.88;74.71;98270.84;5018678;28;20226;-76
2022/04/07 03:05:08;;;;;;;12.70;11.50;;;;;;;10.51;75.00;98257.22;5019729;28;20183;-77
2022/04/07 03:07:35;;;;;;;12.30;11.10;;;;;;;10.55;75.54;98271.00;5019134;28;20259;-75
2022/04/07 03:10:01;;;;;;;13.17;11.97;;;;;;;10.43;75.91;98259.19;5019172;28;20480;-75
2022/04/07 03:12:26;;;;;;;12.20;11.13;;;;;;;10.77;75.31;98246.00;5019367;28;20377;-74
2022/04/07 03:14:52;;;;;;;13.43;12.30;;;;;;;10.58;75.09;98239.63;5018740;28;20186;-76
2022/04/07 03:17:17;;;;;;;13.47;12.27;;;;;;;10.60;74.80;98235.25;5018754;28;20222;-75
2022/04/07 03:19:43;;;;;;;13.10;11.80;;;;;;;10.45;75.35;98232.19;5019108;28;20309;-76
2022/04/07 03:22:08;;;;;;;13.00;11.70;;;;;;;10.38;75.77;98238.50;5018831;28;20273;-75
2022/04/07 03:24:33;;;;;;;14.97;12.17;;;;;;;10.89;74.02;98210.88;5018728;28;20191;-75
2022/04/07 03:26:59;;;;;;;14.13;12.87;;;;;;;10.67;73.69;98215.91;5018984;28;20182;-76
2022/04/07 03:29:26;;;;;;;14.50;11.83;;;;;;;10.72;73.57;98216.63;5018917;28;20178;-78
2022/04/07 03:31:51;;;;;;;14.10;12.80;;;;;;;10.83;73.24;98207.63;5018960;28;20185;-78
2022/04/07 03:34:17;;;;;;;12.47;11.37;;;;;;;10.75;72.58;98219.13;5019274;28;20406;-78
2022/04/07 03:36:42;;;;;;;12.23;11.07;;;;;;;10.45;73.16;98189.69;5019071;28;20463;-78
2022/04/07 03:39:09;;;;;;;13.70;12.40;;;;;;;10.71;72.69;98193.22;5018809;28;20229;-78
2022/04/07 03:41:34;;;;;;;13.40;12.00;;;;;;;10.91;72.32;98195.19;5018647;28;20178;-79
2022/04/07 03:44:00;;;;;;;13.47;12.30;;;;;;;11.11;71.99;98179.72;5018858;28;20418;-79
2022/04/07 03:46:25;;;;;;;12.70;11.60;;;;;;;11.22;71.87;98175.91;5018750;28;20239;-77
2022/04/07 03:48:51;;;;;;;11.67;10.67;;;;;;;10.79;72.12;98184.25;5017993;28;20182;-77
2022/04/07 03:51:16;;;;;;;12.50;11.30;;;;;;;10.55;72.57;98206.75;5018596;28;20532;-76
2022/04/07 03:53:42;;;;;;;12.07;10.87;;;;;;;10.87;71.98;98160.53;5018691;28;20185;-76
2022/04/07 03:56:07;;;;;;;11.93;10.87;;;;;;;10.57;72.38;98163.25;5018396;28;20497;-78
2022/04/07 03:58:33;;;;;;;11.10;10.20;;;;;;;11.00;71.55;98166.22;5017719;28;20309;-78
2022/04/07 04:00:58;;;;;;;11.23;10.20;;;;;;;10.76;71.50;98166.09;5019234;28;20193;-77
2022/04/07 04:03:24;;;;;;;12.60;11.50;;;;;;;11.05;72.05;98151.25;5022309;28;20305;-77
2022/04/07 04:05:49;;;;;;;12.07;10.97;;;;;;;10.85;71.95;98144.13;5022306;28;20185;-77
2022/04/07 04:08:14;;;;;;;12.43;11.37;;;;;;;11.03;72.09;98142.63;5022280;28;20194;-76
2022/04/07 04:10:40;;;;;;;12.17;10.03;;;;;;;10.94;71.64;98146.41;5022060;28;20175;-76
2022/04/07 04:13:05;;;;;;;11.10;10.10;;;;;;;11.07;71.53;98148.63;5022274;28;20181;-76
2022/04/07 04:15:30;;;;;;;11.20;10.00;;;;;;;10.76;71.94;98152.25;5022752;28;20195;-76
2022/04/07 04:17:55;;;;;;;10.40;9.60;;;;;;;10.76;71.59;98140.06;5021894;28;20571;-76
2022/04/07 04:20:21;;;;;;;11.00;10.00;;;;;;;11.08;71.50;98145.94;5022111;28;20174;-76
2022/04/07 04:22:46;;;;;;;10.70;9.70;;;;;;;10.59;72.45;98131.94;5022511;28;20229;-77
2022/04/07 04:25:11;;;;;;;10.93;9.93;;;;;;;11.07;71.70;98139.03;5022158;28;20171;-75
2022/04/07 04:27:37;;;;;;;9.37;8.57;;;;;;;10.87;71.39;98131.88;5021895;28;20548;-77
2022/04/07 04:30:02;;;;;;;10.27;8.87;;;;;;;10.66;71.96;98117.78;5022509;28;20175;-76
2022/04/07 04:32:28;;;;;;;10.90;10.00;;;;;;;10.72;71.66;98120.22;5021622;28;20270;-76
2022/04/07 04:34:53;;;;;;;9.27;8.57;;;;;;;10.87;72.02;98126.66;5021800;28;20211;-75
2022/04/07 04:37:21;;;;;;;9.60;8.80;;;;;;;10.56;72.41;98121.63;5022358;28;20167;-75
2022/04/07 04:39:46;;;;;;;9.30;8.57;;;;;;;10.49;72.77;98117.53;5021882;28;20175;-75
2022/04/07 04:42:12;;;;;;;9.33;8.53;;;;;;;10.63;72.70;98117.91;5021410;28;20443;-74
2022/04/07 04:44:37;;;;;;;10.60;9.20;;;;;;;10.77;73.09;98112.22;5021940;28;20221;-76
2022/04/07 04:47:02;;;;;;;11.13;9.30;;;;;;;10.91;72.52;98103.97;5021178;28;20241;-76
2022/04/07 04:49:28;;;;;;;9.87;9.03;;;;;;;10.60;72.65;98094.56;5021388;28;20179;-75
2022/04/07 04:51:53;;;;;;;11.30;10.20;;;;;;;10.95;72.67;98084.69;5021711;28;20179;-77
2022/04/07 04:54:18;;;;;;;10.37;9.37;;;;;;;10.72;73.43;98078.53;5021429;28;20205;-77
2022/04/07 04:56:44;;;;;;;10.30;9.40;;;;;;;10.50;74.00;98088.81;5021237;28;20211;-75
2022/04/07 04:59:09;;;;;;;11.23;10.20;;;;;;;10.59;73.97;98074.63;5020897;28;20177;-77
2022/04/07 05:01:34;;;;;;;11.50;10.43;;;;;;;10.78;73.38;98090.47;5020418;28;20171;-77
2022/04/07 05:04:00;;;;;;;11.97;10.47;;;;;;;10.78;73.67;98072.25;5020871;28;20178;-77
2022/04/07 05:06:25;;;;;;;10.57;9.60;;;;;;;10.31;75.06;98075.50;5021939;28;20587;-78
2022/04/07 05:08:50;;;;;;;11.07;10.07;;;;;;;10.62;74.74;98074.50;5029228;28;20214;-77
2022/04/07 05:11:16;;;;;;;12.20;11.10;;;;;;;10.74;74.29;98071.50;5040902;28;20438;-76
2022/04/07 05:13:41;;;;;;;11.03;10.13;;;;;;;10.28;75.18;98070.38;5041339;28;20175;-76
2022/04/07 05:16:15;;;;;;;11.33;10.43;;;;;;;10.84;73.51;98055.53;5040904;28;20206;-78
2022/04/07 05:18:40;;;;;;;12.10;10.90;;;;;;;10.94;73.46;98052.56;5041015;28;20543;-76
2022/04/07 05:21:06;;;;;;;10.43;9.53;;;;;;;10.50;73.87;98052.34;5026888;28;20422;-76
2022/04/07 05:23:32;;;;;;;10.17;9.30;;;;;;;10.53;73.93;98044.41;5020969;28;20178;-77
2022/04/07 05:25:57;;;;;;;9.90;8.90;;;;;;;10.90;72.63;98044.91;5021065;28;20174;-76
2022/04/07 05:28:23;;;;;;;9.60;8.67;;;;;;;11.18;72.12;98034.34;5021120;28;20424;-76
2022/04/07 05:30:48;;;;;;;9.30;8.40;;;;;;;11.07;71.80;98033.91;5020655;28;20178;-76
2022/04/07 05:33:13;;;;;;;9.47;8.57;;;;;;;11.40;70.73;98041.38;5020467;28;20185;-75
2022/04/07 05:35:39;;;;;;;8.70;8.00;;;;;;;11.02;71.28;98041.88;5020170;28;20223;-75
2022/04/07 05:38:04;;;;;;;8.07;7.30;;;;;;;10.98;71.65;98029.84;5021126;28;20237;-76
2022/04/07 05:40:29;;;;;;;9.47;7.70;;;;;;;10.75;71.98;98035.88;5020603;28;20273;-75
2022/04/07 05:42:55;;;;;;;9.70;7.50;;;;;;;10.87;72.10;98013.75;5021259;28;20529;-76
2022/04/07 05:45:21;;;;;;;7.90;7.20;;;;;;;10.73;71.82;98016.81;5020370;28;20402;-76
2022/04/07 05:47:46;;;;;;;7.33;6.73;;;;;;;10.92;72.44;97998.81;5020037;28;20583;-75
2022/04/07 05:50:12;;;;;;;6.80;6.30;;;;;;;10.78;72.43;98001.88;5020252;28;20425;-75
2022/04/07 05:52:37;;;;;;;7.37;6.43;;;;;;;10.57;72.70;97993.91;5020387;28;20509;-76
2022/04/07 05:55:03;;;;;;;7.07;6.47;;;;;;;10.54;73.49;97980.13;5020143;28;20189;-76
2022/04/07 05:57:32;;;;;;;7.30;6.70;;;;;;;10.77;73.32;97971.50;5020709;28;20175;-76
2022/04/07 06:00:11;;;;;;;6.87;6.27;;;;;;;10.49;73.27;97974.25;5020462;28;20671;-77
2022/04/07 06:02:37;;;;;;;6.73;5.97;;;;;;;10.56;73.29;97967.91;5020036;28;20436;-77
2022/04/07 06:05:03;;;;;;;7.03;6.30;;;;;;;10.55;73.58;97963.59;5023716;28;20395;-77
2022/04/07 06:07:28;;;;;;;6.87;6.17;;;;;;;10.86;72.98;97963.34;5030650;28;20425;-77
2022/04/07 06:09:53;;;;;;;6.63;6.13;;;;;;;10.68;72.46;97964.88;5020253;28;20568;-75
2022/04/07 06:12:18;;;;;;;6.70;6.10;;;;;;;10.23;73.64;97955.97;5019700;28;20179;-77
2022/04/07 06:14:44;;;;;;;7.47;6.77;;;;;;;10.89;72.68;97955.44;5019891;28;20568;-75
2022/04/07 06:17:10;;;;;;;8.10;7.30;;;;;;;10.75;72.68;97945.50;5020296;28;20221;-75
2022/04/07 06:19:35;;;;;;;7.77;7.10;;;;;;;10.74;72.60;97932.53;5019872;28;20567;-76
2022/04/07 06:22:00;;;;;;;10.00;8.17;;;;;;;10.24;73.82;97939.47;5020099;28;20563;-76
2022/04/07 06:24:27;;;;;;;9.27;8.40;;;;;;;10.47;73.36;97924.81;5018908;28;20185;-77
2022/04/07 06:26:52;;;;;;;8.50;7.70;;;;;;;10.83;72.45;97918.34;5019769;28;20181;-72
2022/04/07 06:29:17;;;;;;;8.13;7.30;;;;;;;10.67;71.97;97924.09;5019557;28;20429;-76
2022/04/07 06:31:43;;;;;;;8.60;7.90;;;;;;;10.67;72.19;97908.47;5018624;28;20568;-74
2022/04/07 06:34:08;;;;;;;9.03;8.23;;;;;;;10.85;72.05;97899.13;5019390;28;20203;-74
2022/04/07 06:36:33;;;;;;;10.00;8.57;;;;;;;10.94;71.91;97908.34;5018609;28;20199;-71
2022/04/07 06:38:59;;;;;;;10.53;9.00;;;;;;;11.00;71.33;97913.34;5018063;28;20182;-72
2022/04/07 06:41:24;;;;;;;9.73;8.73;;;;;;;11.27;70.87;97895.78;5015882;28;20183;-74
2022/04/07 06:43:49;;;;;;;13.33;8.20;;;;;;;11.26;70.50;97895.84;5018363;28;20270;-72
2022/04/07 06:46:15;;;;;;;10.23;9.23;;;;;;;11.27;70.10;97876.66;5018550;28;20426;-76
2022/04/07 06:48:40;;;;;;;9.20;8.50;;;;;;;11.42;70.38;97880.44;5018931;28;20186;-73
2022/04/07 06:51:06;;;;;;;9.27;8.37;;;;;;;11.62;69.76;97890.06;5001312;28;20460;-75
2022/04/07 06:53:31;;;;;;;9.40;8.40;;;;;;;11.56;68.71;97880.72;5017604;28;20167;-73
2022/04/07 06:55:56;;;;;;;12.07;8.73;;;;;;;11.43;69.12;97869.97;5015632;28;20222;-74
2022/04/07 06:58:22;;;;;;;9.33;8.43;;;;;;;11.02;70.43;97854.16;5016988;28;20187;-75
2022/04/07 07:00:47;;;;;;;11.60;7.90;;;;;;;11.04;70.50;97854.97;5017833;28;20470;-71
2022/04/07 07:03:14;;;;;;;8.63;7.40;;;;;;;11.32;69.54;97853.03;5017908;28;20229;-71
2022/04/07 07:05:39;;;;;;;13.83;8.10;;;;;;;11.54;68.70;97832.13;5017581;28;20261;-73
2022/04/07 07:08:12;;;;;;;8.20;7.40;;;;;;;12.02;68.04;97812.75;5020866;28;20840;-71
2022/04/07 07:10:37;;;;;;;8.53;7.53;;;;;;;11.37;68.71;97811.97;5013806;28;20179;-73
2022/04/07 07:13:02;;;;;;;8.00;7.03;;;;;;;11.77;68.44;97798.09;5018544;28;20452;-75
2022/04/07 07:15:28;;;;;;;7.80;7.10;;;;;;;11.57;67.96;97782.47;5015393;28;20206;-75
2022/04/07 07:17:53;;;;;;;7.10;6.50;;;;;;;11.57;68.02;97787.66;5016702;28;20185;-74
2022/04/07 07:20:19;;;;;;;7.53;6.83;;;;;;;12.18;66.23;97775.50;5016960;28;20255;-74
2022/04/07 07:22:44;;;;;;;13.23;6.77;;;;;;;11.25;67.54;97779.41;5017855;28;20252;-75
2022/04/07 07:25:10;;;;;;;8.00;6.47;;;;;;;11.46;68.00;97773.31;5017854;28;20186;-75
2022/04/07 07:27:40;;;;;;;7.60;6.67;;;;;;;11.23;68.48;97768.19;5017775;28;20178;-75
2022/04/07 07:30:09;;;;;;;6.80;6.17;;;;;;;11.59;68.02;97741.47;5033841;28;20412;-76
2022/04/07 07:32:37;;;;;;;6.90;6.20;;;;;;;11.00;69.05;97762.16;5017851;28;20448;-74
2022/04/07 07:35:04;;;;;;;8.67;6.30;;;;;;;11.42;69.16;97727.41;5018149;28;20449;-75
2022/04/07 07:37:29;;;;;;;10.83;6.43;;;;;;;11.12;69.99;97719.94;5018456;28;20403;-74
2022/04/07 07:39:55;;;;;;;7.43;6.40;;;;;;;11.11;70.24;97717.41;5017686;28;20404;-71
2022/04/07 07:42:21;;;;;;;7.57;6.07;;;;;;;11.64;68.89;97697.78;5017933;28;20404;-71
2022/04/07 07:44:47;;;;;;;7.40;5.87;;;;;;;11.39;69.37;97706.66;5018858;28;20175;-73
2022/04/07 07:47:12;;;;;;;5.80;5.30;;;;;;;11.33;69.37;97699.09;5017925;28;20426;-72
2022/04/07 07:49:37;;;;;;;8.53;6.37;;;;;;;10.87;69.67;97699.22;5018503;28;20533;-75
2022/04/07 07:52:03;;;;;;;6.50;5.70;;;;;;;10.90;72.34;97703.47;5018995;28;20206;-71
2022/04/07 07:54:28;;;;;;;9.37;6.33;;;;;;;10.87;73.70;97675.78;5000752;28;20174;-73
2022/04/07 07:56:54;;;;;;;7.10;6.13;;;;;;;10.62;73.73;97660.28;5018078;28;20526;-74
2022/04/07 07:59:20;;;;;;;7.60;5.80;;;;;;;10.73;74.52;97657.25;5018717;28;20179;-76
2022/04/07 08:01:46;;;;;;;7.27;6.00;;;;;;;10.70;75.14;97666.06;5017863;28;20178;-75
2022/04/07 08:04:12;;;;;;;9.50;5.43;;;;;;;10.55;74.46;97646.69;5018377;28;20689;-71
2022/04/07 08:06:39;;;;;;;6.73;6.03;;;;;;;10.38;75.93;97642.13;5018739;28;20553;-74
2022/04/07 08:09:04;;;;;;;8.23;6.90;;;;;;;10.97;75.17;97631.09;5028848;28;20431;-75
2022/04/07 08:11:29;;;;;;;6.50;5.90;;;;;;;10.62;74.93;97613.41;5037624;28;20396;-75
2022/04/07 08:13:55;;;;;;;6.90;6.30;;;;;;;10.82;75.18;97614.34;5038197;28;20166;-75
2022/04/07 08:16:20;;;;;;;7.80;5.70;;;;;;;10.73;74.89;97610.34;5037577;28;20221;-76
2022/04/07 08:18:46;;;;;;;6.03;5.40;;;;;;;10.79;75.27;97613.53;5037790;28;20427;-74
2022/04/07 08:21:11;;;;;;;8.47;6.33;;;;;;;10.72;75.22;97604.31;5022178;28;20190;-76
2022/04/07 08:23:36;;;;;;;6.07;5.57;;;;;;;10.66;75.32;97614.97;5000776;28;20422;-74
2022/04/07 08:26:02;;;;;;;7.03;5.87;;;;;;;10.51;75.83;97606.00;5017872;28;20186;-75
2022/04/07 08:28:27;;;;;;;10.43;5.63;;;;;;;10.37;77.28;97614.41;5018645;28;20167;-75
2022/04/07 08:30:52;;;;;;;6.10;5.60;;;;;;;10.66;77.71;97606.31;5017708;28;20202;-73
2022/04/07 08:33:20;;;;;;;6.80;5.23;;;;;;;10.45;77.20;97596.69;5017750;28;20171;-76
2022/04/07 08:35:46;;;;;;;5.70;5.10;;;;;;;10.21;77.83;97587.25;5017963;28;20195;-76
2022/04/07 08:38:15;;;;;;;8.10;6.57;;;;;;;10.27;77.67;97576.59;5017648;28;20472;-77
2022/04/07 08:40:41;;;;;;;8.30;6.13;;;;;;;10.42;78.33;97576.00;5017185;28;20420;-77
2022/04/07 08:43:08;;;;;;;6.30;5.70;;;;;;;10.46;78.65;97584.53;5018306;28;20441;-77
2022/04/07 08:45:35;;;;;;;7.40;5.90;;;;;;;10.34;78.74;97561.59;5001214;28;20476;-76
2022/04/07 08:48:05;;;;;;;7.43;6.00;;;;;;;10.61;78.42;97568.28;5020093;28;20436;-77
2022/04/07 08:50:33;;;;;;;6.10;4.80;;;;;;;10.42;78.89;97551.72;5021774;28;20446;-77
2022/04/07 08:53:04;;;;;;;6.50;4.90;;;;;;;10.35;78.48;97540.72;5020611;28;20440;-76
2022/04/07 08:55:29;;;;;;;5.53;5.03;;;;;;;10.54;79.41;97529.50;5021299;28;20468;-74
2022/04/07 08:57:55;;;;;;;5.97;5.40;;;;;;;10.22;80.81;97535.13;5021071;28;20472;-76
2022/04/07 09:00:21;;;;;;;8.20;5.33;;;;;;;9.49;82.60;97656.69;5021364;28;20171;-75
2022/04/07 09:02:46;;;;;;;3.43;2.90;;;;;;;8.20;81.92;97673.00;5021512;28;20226;-76
2022/04/07 09:05:12;;;;;;;4.40;2.83;;;;;;;8.26;82.23;97672.81;5022158;28;20508;-77
2022/04/07 09:07:38;;;;;;;2.40;2.20;;;;;;;8.11;80.47;97672.44;5020783;28;20167;-73
2022/04/07 09:10:04;;;;;;;2.30;1.90;;;;;;;7.65;79.36;97677.22;5040145;28;20455;-73
2022/04/07 09:12:30;;;;;;;2.20;2.00;;;;;;;7.96;78.65;97674.59;5040688;28;20516;-76
2022/04/07 09:14:57;;;;;;;1.90;1.77;;;;;;;7.97;77.75;97668.50;5040364;28;20749;-76
2022/04/07 09:17:22;;;;;;;2.63;2.43;;;;;;;8.11;77.64;97677.63;5040722;28;20216;-76
2022/04/07 09:19:51;;;;;;;3.10;2.07;;;;;;;7.44;77.29;97676.88;5037494;28;20799;-75
2022/04/07 09:22:16;;;;;;;2.30;1.97;;;;;;;7.61;77.58;97684.22;5020899;28;20175;-76
2022/04/07 09:24:45;;;;;;;2.00;1.80;;;;;;;7.64;77.50;97684.13;5020068;28;20883;-76
2022/04/07 09:27:12;;;;;;;5.20;2.37;;;;;;;7.30;77.78;97674.69;5021360;28;20167;-76
2022/04/07 09:29:54;;;;;;;3.07;2.40;;;;;;;7.63;78.40;97677.25;5020572;28;20392;-77
2022/04/07 09:32:21;;;;;;;3.40;2.87;;;;;;;7.87;77.39;97665.31;5020565;28;20465;-76
2022/04/07 09:34:53;;;;;;;3.97;2.70;;;;;;;7.86;77.20;97660.19;5020536;28;20417;-74
2022/04/07 09:37:23;;;;;;;5.23;2.40;;;;;;;7.50;77.80;97671.56;5020548;28;20530;-75
2022/04/07 09:39:50;;;;;;;3.10;2.50;;;;;;;8.15;77.46;97654.13;5019745;28;20422;-76
2022/04/07 09:42:25;;;;;;;4.73;2.80;;;;;;;8.22;76.72;97634.88;5020414;28;20831;-76
2022/04/07 09:44:53;;;;;;;2.40;2.20;;;;;;;7.96;76.69;97653.84;5019720;28;20410;-76
2022/04/07 09:47:19;;;;;;;3.03;2.60;;;;;;;8.10;76.80;97650.81;5020208;28;20399;-73
2022/04/07 09:49:45;;;;;;;2.50;2.30;;;;;;;8.49;76.73;97660.06;5020698;28;20410;-73
2022/04/07 09:52:11;;;;;;;2.23;2.00;;;;;;;7.67;77.26;97659.84;5019913;28;20428;-73
2022/04/07 09:54:40;;;;;;;4.03;2.60;;;;;;;7.99;77.50;97671.06;5020394;28;20551;-72
2022/04/07 09:57:09;;;;;;;3.10;2.13;;;;;;;7.62;78.04;97678.16;5020560;28;20520;-72
2022/04/07 09:59:36;;;;;;;2.30;2.00;;;;;;;8.07;77.42;97659.53;5019260;28;20418;-70
2022/04/07 10:02:03;;;;;;;2.67;2.47;;;;;;;7.79;77.97;97656.91;5019104;28;20462;-72
2022/04/07 10:04:28;;;;;;;2.57;1.90;;;;;;;7.84;77.39;97647.25;5019949;28;20831;-72
2022/04/07 10:06:55;;;;;;;2.97;2.30;;;;;;;7.83;77.12;97636.94;5019313;28;20418;-72
2022/04/07 10:09:21;;;;;;;2.27;2.07;;;;;;;7.70;77.65;97636.47;5027953;28;20220;-71
2022/04/07 10:11:47;;;;;;;2.70;2.40;;;;;;;8.12;76.88;97637.78;5020235;28;20446;-72
2022/04/07 10:14:14;;;;;;;2.57;2.37;;;;;;;7.80;77.54;97642.22;5019771;28;20183;-71
2022/04/07 10:16:39;;;;;;;2.50;2.30;;;;;;;8.29;77.32;97643.31;5026265;28;20473;-72
2022/04/07 10:19:25;;;;;;;3.50;2.10;;;;;;;8.35;76.25;97631.88;5039505;28;20651;-73
2022/04/07 10:22:26;;;;;;;5.50;2.33;;;;;;;7.86;76.61;97631.66;5009623;28;20541;-72
2022/04/07 10:24:55;;;;;;;2.07;1.80;;;;;;;7.35;78.57;97633.09;5020005;28;20487;-73
2022/04/07 10:27:24;;;;;;;8.00;2.30;;;;;;;7.47;78.43;97644.84;5019000;28;20736;-73
2022/04/07 10:30:06;;;;;;;4.03;2.33;;;;;;;7.27;78.34;97624.69;5018405;28;20780;-73
2022/04/07 10:32:42;;;;;;;3.20;2.17;;;;;;;7.37;78.53;97616.63;5019355;28;20437;-74
2022/04/07 10:35:08;;;;;;;3.10;2.40;;;;;;;7.37;78.19;97608.84;5018776;28;20422;-73
2022/04/07 10:37:42;;;;;;;4.10;2.50;;;;;;;7.15;79.12;97610.34;5017060;28;20425;-71
2022/04/07 10:40:39;;;;;;;2.30;2.10;;;;;;;7.22;78.23;97599.72;5017295;28;20437;-71
2022/04/07 10:43:10;;;;;;;2.60;2.40;;;;;;;7.01;77.18;97587.38;5019982;28;20446;-72
2022/04/07 10:45:45;;;;;;;2.90;2.20;;;;;;;7.17;76.90;97559.31;5018130;28;20472;-72
2022/04/07 10:48:28;;;;;;;3.80;2.97;;;;;;;7.67;75.55;97544.06;5020247;28;20523;-75
2022/04/07 10:50:55;;;;;;;3.20;2.60;;;;;;;7.36;74.83;97550.13;5017566;28;20419;-75
2022/04/07 10:53:25;;;;;;;2.80;2.50;;;;;;;7.01;74.74;97553.69;5018211;28;20426;-76
2022/04/07 10:56:07;;;;;;;3.40;3.10;;;;;;;7.33;74.51;97555.38;5012775;28;20733;-78
2022/04/07 10:58:42;;;;;;;3.47;3.00;;;;;;;7.69;73.96;97573.34;5017583;28;20865;-76
2022/04/07 11:01:13;;;;;;;4.10;3.70;;;;;;;7.59;74.34;97590.94;5018345;28;20483;-75
2022/04/07 11:03:41;;;;;;;4.13;3.30;;;;;;;6.71;75.30;97562.25;5018832;28;20549;-74
2022/04/07 11:06:07;;;;;;;3.97;3.57;;;;;;;7.36;75.00;97576.06;5016398;28;20446;-75
2022/04/07 11:08:33;;;;;;;3.50;3.20;;;;;;;7.35;74.43;97522.50;5012414;28;20417;-74
2022/04/07 11:10:58;;;;;;;3.67;3.37;;;;;;;7.70;73.86;97528.41;5011170;28;20433;-74
2022/04/07 11:13:43;;;;;;;5.77;3.83;;;;;;;8.01;71.52;97514.47;5011468;28;20275;-74
2022/04/07 11:16:20;;;;;;;4.83;3.83;;;;;;;8.16;72.00;97514.84;5014714;28;20214;-74
2022/04/07 11:19:44;;;;;;;5.17;4.60;;;;;;;9.84;69.31;97536.66;5018335;28;20432;-74
2022/04/07 11:22:12;;;;;;;4.17;3.87;;;;;;;9.77;65.45;97523.88;4968683;28;20495;-75
2022/04/07 11:24:44;;;;;;;4.10;3.70;;;;;;;10.56;65.08;97525.09;4978045;28;20406;-75
2022/04/07 11:27:33;;;;;;;3.77;3.43;;;;;;;11.19;62.79;97503.25;4999141;28;20400;-73